Latest Weather Observations for Roebourne Airport

IDW60801

Issued at 8:02 am WST Sunday 5 July 2015 (issued every 30 minutes, with the page automatically refreshed every 10 minutes)

About weather observations | Map of weather stations | Latest weather observations for WA | Other Formats
Station Details ID: 004090 Name: ROEBOURNE AERO Lat: -20.76 Lon: 117.16 Height: 10.7 m
Data from the previous 72 hours. | See also: Recent months at Roebourne Airport
Date/Time
WST
Temp
°C
App
Temp
°C
Dew
Point
Rel
Hum
%
Delta-T
°C
Wind Press
QNH
hPa
Press
MSL
hPa
Rain
since 9 am
mm
Dir
 
Spd
km/h
Gust
km/h
Spd
kts
Gust
kts
05/08:00am 17.8 16.7 5.1 43 6.1 CALM 0 0 0 0 1019.8 1019.7 0.0
05/07:30am 13.0 10.7 4.9 58 3.7 SSE 6 9 3 5 1019.6 1019.5 0.0
05/07:00am 10.2 7.2 3.9 65 2.8 S 9 11 5 6 1019.4 1019.3 0.0
05/06:30am 10.2 7.9 4.6 68 2.5 S 6 7 3 4 1019.1 1019.0 0.0
05/06:00am 10.0 7.9 5.6 74 2.0 SSW 6 7 3 4 1018.7 1018.6 0.0
05/05:30am 10.2 8.1 6.0 75 1.9 SSW 6 7 3 4 1018.6 1018.5 0.0
05/05:00am 10.1 8.8 4.3 67 2.6 CALM 0 6 0 3 1018.4 1018.3 0.0
05/04:30am 10.4 9.1 4.3 66 2.7 CALM 0 0 0 0 1018.3 1018.2 0.0
05/04:00am 9.7 8.4 4.1 68 2.5 CALM 0 0 0 0 1018.3 1018.2 0.0
05/03:30am 9.9 8.6 3.9 66 2.6 CALM 0 0 0 0 1018.1 1018.0 0.0
05/03:00am 10.5 9.1 3.8 63 2.9 CALM 0 0 0 0 1018.2 1018.1 0.0
05/02:30am 10.7 9.4 4.2 64 2.9 CALM 0 0 0 0 1018.2 1018.1 0.0
05/02:00am 11.2 8.7 4.7 64 2.9 SW 7 9 4 5 1018.4 1018.3 0.0
05/01:30am 11.2 9.2 4.4 63 3.1 SW 4 7 2 4 1018.4 1018.3 0.0
05/01:00am 11.6 9.5 4.1 60 3.4 WSW 4 6 2 3 1018.5 1018.4 0.0
05/12:30am 13.2 10.8 5.1 58 3.8 SW 7 11 4 6 1018.5 1018.4 0.0
05/12:00am 13.0 10.8 5.4 60 3.5 SW 6 9 3 5 1018.6 1018.5 0.0
 
Date/Time
WST
Temp
°C
App
Temp
°C
Dew
Point
Rel
Hum
%
Delta-T
°C
Wind Press
QNH
hPa
Press
MSL
hPa
Rain
since 9 am
mm
Dir
 
Spd
km/h
Gust
km/h
Spd
kts
Gust
kts
04/11:30pm 11.5 8.6 4.9 64 3.0 SW 9 11 5 6 1018.7 1018.6 0.0
04/11:00pm 12.6 9.9 5.5 62 3.3 SSW 9 11 5 6 1018.7 1018.6 0.0
04/10:30pm 14.2 12.8 5.3 55 4.2 SSW 2 7 1 4 1018.6 1018.5 0.0
04/10:00pm 14.1 11.8 4.9 54 4.3 SW 6 7 3 4 1018.8 1018.7 0.0
04/09:30pm 14.8 12.6 6.4 57 4.1 SW 7 9 4 5 1018.8 1018.7 0.0
04/09:00pm 15.3 12.6 5.5 52 4.7 SSW 9 11 5 6 1018.7 1018.6 0.0
04/08:30pm 15.2 13.3 4.9 50 4.8 SSW 4 7 2 4 1018.5 1018.4 0.0
04/08:00pm 16.8 15.8 5.4 47 5.5 CALM 0 0 0 0 1018.2 1018.1 0.0
04/07:30pm 17.9 16.9 5.8 45 5.9 CALM 0 0 0 0 1018.0 1017.9 0.0
04/07:00pm 18.4 17.3 4.9 41 6.5 CALM 0 0 0 0 1017.7 1017.6 0.0
04/06:30pm 19.6 17.2 4.5 37 7.3 N 6 7 3 4 1017.5 1017.4 0.0
04/06:00pm 22.2 19.0 5.2 33 8.4 NNE 11 11 6 6 1017.2 1017.1 0.0
04/05:30pm 24.9 21.1 1.7 22 11.0 E 11 15 6 8 1017.1 1017.0 0.0
04/05:00pm 27.6 22.4 0.4 17 12.8 ESE 17 24 9 13 1017.0 1016.9 0.0
04/04:30pm 28.4 23.2 0.2 16 13.4 ESE 17 24 9 13 1017.0 1016.9 0.0
04/04:00pm 28.8 23.0 -0.4 15 13.7 ESE 20 35 11 19 1017.1 1017.0 0.0
04/03:30pm 29.1 23.3 -0.1 15 13.8 ESE 20 32 11 17 1017.1 1017.0 0.0
04/03:00pm 29.0 23.2 -0.2 15 13.8 E 20 30 11 16 1017.2 1017.1 0.0
04/02:30pm 29.2 22.8 0.8 16 13.7 ESE 24 39 13 21 1017.4 1017.3 0.0
04/02:00pm 29.2 22.6 -0.1 15 13.9 E 24 37 13 20 1017.5 1017.4 0.0
04/01:30pm 29.3 22.5 0.9 16 13.7 E 26 35 14 19 1017.8 1017.7 0.0
04/01:00pm 29.3 22.5 0.9 16 13.7 E 26 37 14 20 1018.2 1018.1 0.0
04/12:30pm 28.6 22.0 2.0 18 13.0 E 26 39 14 21 1018.7 1018.6 0.0
04/12:00pm 28.2 22.6 0.9 17 13.0 E 20 35 11 19 1019.3 1019.2 0.0
04/11:30am 27.9 22.0 1.4 18 12.8 E 22 35 12 19 1019.9 1019.8 0.0
04/11:00am 27.9 22.7 3.6 21 12.1 ESE 20 32 11 17 1020.1 1020.0 0.0
04/10:30am 26.8 21.2 3.3 22 11.6 ESE 22 30 12 16 1020.5 1020.4 0.0
04/10:00am 26.3 21.2 4.1 24 11.1 ESE 20 28 11 15 1020.8 1020.7 0.0
04/09:30am 25.0 19.4 3.6 25 10.5 ESE 22 28 12 15 1020.8 1020.7 0.0
04/09:00am 24.1 18.6 4.0 27 9.9 ESE 22 28 12 15 1020.8 1020.7 0.0
04/08:30am 22.9 18.5 4.9 31 8.9 SE 17 24 9 13 1020.5 1020.4 0.0
04/08:00am 18.8 15.9 6.3 44 6.2 SSE 11 13 6 7 1020.3 1020.2 0.0
04/07:30am 14.7 11.4 6.3 57 4.0 S 13 13 7 7 1019.9 1019.8 0.0
04/07:00am 12.6 9.1 5.3 61 3.4 S 13 15 7 8 1019.5 1019.4 0.0
04/06:30am 12.4 9.5 4.6 59 3.6 S 9 11 5 6 1019.2 1019.1 0.0
04/06:00am 12.3 8.7 5.0 61 3.3 S 13 13 7 7 1018.9 1018.8 0.0
04/05:30am 13.2 10.3 4.9 57 3.8 S 9 11 5 6 1018.8 1018.7 0.0
04/05:00am 13.2 9.6 4.9 57 3.8 S 13 13 7 7 1018.7 1018.6 0.0
04/04:30am 13.9 10.7 5.0 55 4.1 S 11 13 6 7 1018.6 1018.5 0.0
04/04:00am 13.3 10.1 5.2 58 3.8 S 11 13 6 7 1018.6 1018.5 0.0
04/03:30am 13.3 9.7 5.0 57 3.8 S 13 15 7 8 1018.7 1018.6 0.0
04/03:00am 14.6 11.4 5.1 53 4.4 S 11 13 6 7 1018.8 1018.7 0.0
04/02:30am 13.9 10.7 5.3 56 4.0 S 11 13 6 7 1018.9 1018.8 0.0
04/02:00am 15.3 12.1 5.2 51 4.8 S 11 13 6 7 1019.0 1018.9 0.0
04/01:30am 14.6 13.7 6.2 57 4.0 CALM 0 0 0 0 1019.1 1019.0 0.0
04/01:00am 14.7 12.2 5.0 52 4.5 SSW 7 9 4 5 1019.1 1019.0 0.0
04/12:30am 15.6 12.5 5.5 51 4.8 S 11 13 6 7 1019.1 1019.0 0.0
04/12:00am 15.3 11.9 5.8 53 4.5 S 13 15 7 8 1019.2 1019.1 0.0
 
Date/Time
WST
Temp
°C
App
Temp
°C
Dew
Point
Rel
Hum
%
Delta-T
°C
Wind Press
QNH
hPa
Press
MSL
hPa
Rain
since 9 am
mm
Dir
 
Spd
km/h
Gust
km/h
Spd
kts
Gust
kts
03/11:30pm 15.9 12.8 5.5 50 5.0 S 11 13 6 7 1019.3 1019.2 0.0
03/11:00pm 15.9 12.8 5.5 50 5.0 S 11 13 6 7 1019.6 1019.5 0.0
03/10:30pm 16.3 13.6 5.6 49 5.1 S 9 11 5 6 1019.7 1019.6 0.0
03/10:00pm 16.9 14.4 6.4 50 5.1 S 9 11 5 6 1019.8 1019.7 0.0
03/09:30pm 17.6 16.8 6.5 48 5.5 CALM 0 6 0 3 1019.7 1019.6 0.0
03/09:00pm 17.6 16.8 6.5 48 5.5 CALM 0 0 0 0 1019.7 1019.6 0.0
03/08:30pm 18.1 17.1 5.7 44 6.0 CALM 0 0 0 0 1019.6 1019.5 0.0
03/08:00pm 18.6 16.5 5.8 43 6.3 SSE 6 7 3 4 1019.5 1019.4 0.0
03/07:30pm 20.0 17.1 4.9 37 7.3 ESE 9 11 5 6 1019.3 1019.2 0.0
03/07:00pm 20.9 19.5 5.3 36 7.7 E 2 9 1 5 1019.0 1018.9 0.0
03/06:30pm 20.7 19.2 5.1 36 7.7 NE 2 6 1 3 1018.6 1018.5 0.0
03/06:00pm 23.2 20.9 5.6 32 8.9 NE 7 11 4 6 1018.3 1018.2 0.0
03/05:30pm 25.8 23.1 5.4 27 10.4 ENE 9 13 5 7 1018.1 1018.0 0.0
03/05:00pm 27.7 24.0 4.7 23 11.7 NE 13 20 7 11 1017.9 1017.8 0.0
03/04:30pm 28.8 25.7 3.6 20 12.7 ESE 9 13 5 7 1017.6 1017.5 0.0
03/04:00pm 29.2 24.9 3.2 19 13.0 SE 15 32 8 17 1017.6 1017.5 0.0
03/03:30pm 29.4 24.9 4.1 20 12.9 E 17 22 9 12 1017.5 1017.4 0.0
03/03:00pm 29.2 25.8 3.9 20 12.8 E 11 19 6 10 1017.6 1017.5 0.0
03/02:30pm 30.0 25.6 4.6 20 13.1 ENE 17 24 9 13 1017.8 1017.7 0.0
03/02:00pm 29.9 24.9 4.5 20 13.1 NE 20 33 11 18 1017.8 1017.7 0.0
03/01:30pm 29.5 24.9 3.5 19 13.1 ESE 17 26 9 14 1018.4 1018.3 0.0
03/01:00pm 29.6 24.5 4.3 20 12.9 E 20 33 11 18 1018.6 1018.5 0.0
03/12:30pm 29.3 23.9 4.7 21 12.7 ESE 22 32 12 17 1019.2 1019.1 0.0
03/12:00pm 28.9 22.7 4.4 21 12.5 ESE 26 37 14 20 1019.6 1019.5 0.0
03/11:30am 28.9 22.7 4.4 21 12.5 ESE 26 33 14 18 1020.2 1020.1 0.0
03/11:00am 28.2 22.2 5.1 23 11.9 E 26 39 14 21 1020.6 1020.5 0.0
03/10:30am 26.9 19.7 5.2 25 11.1 ESE 32 39 17 21 1020.8 1020.7 0.0
03/10:00am 25.9 19.6 5.5 27 10.4 ESE 28 35 15 19 1021.1 1021.0 0.0
03/09:30am 25.0 19.1 5.7 29 9.9 ESE 26 32 14 17 1021.3 1021.2 0.0
03/09:00am 23.7 19.1 5.6 31 9.1 SE 19 24 10 13 1021.3 1021.2 0.0
03/08:30am 20.8 19.7 7.1 41 7.0 ESE 2 6 1 3 1021.3 1021.2 0.0
03/08:00am 17.8 15.5 7.5 51 5.2 E 9 13 5 7 1020.9 1020.8 0.0
03/07:30am 16.0 13.3 7.5 57 4.2 ENE 11 19 6 10 1020.7 1020.6 0.0
03/07:00am 11.4 9.5 6.5 72 2.3 S 6 9 3 5 1020.2 1020.1 0.0
03/06:30am 11.1 9.0 6.6 74 2.1 SSW 7 11 4 6 1019.9 1019.8 0.0
03/06:00am 11.4 10.6 6.7 73 2.2 CALM 0 0 0 0 1019.7 1019.6 0.0
03/05:30am 12.1 11.4 7.0 71 2.4 CALM 0 0 0 0 1019.5 1019.4 0.0
03/05:00am 12.6 10.2 6.9 68 2.7 E 9 11 5 6 1019.4 1019.3 0.0
03/04:30am 13.1 10.6 6.7 65 3.1 E 9 13 5 7 1019.3 1019.2 0.0
03/04:00am 14.2 11.9 7.5 64 3.3 SSE 9 17 5 9 1019.1 1019.0 0.0
03/03:30am 12.0 10.6 7.1 72 2.4 S 4 9 2 5 1019.1 1019.0 0.0
03/03:00am 13.9 12.4 8.5 70 2.7 SW 6 11 3 6 1019.2 1019.1 0.0
03/02:30am 12.6 11.2 7.1 69 2.7 SSW 4 7 2 4 1019.3 1019.2 0.0
03/02:00am 13.0 10.7 7.5 69 2.7 SSW 9 9 5 5 1019.6 1019.5 0.0
03/01:30am 13.6 11.6 7.2 65 3.1 SW 7 9 4 5 1019.8 1019.7 0.0
03/01:00am 14.4 13.2 7.9 65 3.2 SW 4 9 2 5 1020.1 1020.0 0.0
03/12:30am 15.0 12.3 7.3 60 3.8 WSW 11 13 6 7 1020.3 1020.2 0.0
03/12:00am 15.2 12.5 7.5 60 3.8 SSW 11 15 6 8 1020.5 1020.4 0.0
 
Date/Time
WST
Temp
°C
App
Temp
°C
Dew
Point
Rel
Hum
%
Delta-T
°C
Wind Press
QNH
hPa
Press
MSL
hPa
Rain
since 9 am
mm
Dir
 
Spd
km/h
Gust
km/h
Spd
kts
Gust
kts
02/11:30pm 16.0 12.9 8.7 62 3.7 SW 15 17 8 9 1020.5 1020.4 0.0
02/11:00pm 15.5 13.4 8.3 62 3.6 SSW 9 13 5 7 1020.7 1020.6 0.0
02/10:30pm 16.1 12.9 8.3 60 4.0 SW 15 19 8 10 1020.9 1020.8 0.0
02/10:00pm 16.6 13.9 9.1 61 3.9 SSW 13 15 7 8 1020.7 1020.6 0.0
02/09:30pm 15.6 13.2 8.8 64 3.5 S 11 13 6 7 1020.7 1020.6 0.0
02/09:00pm 16.7 15.8 9.1 61 3.9 SSW 4 7 2 4 1020.6 1020.5 0.0
02/08:30pm 16.6 16.3 8.6 59 4.1 CALM 0 0 0 0 1020.5 1020.4 0.0
02/08:00pm 18.0 17.5 9.4 57 4.5 WNW 2 6 1 3 1020.2 1020.1 0.0
02/07:30pm 19.0 17.4 10.3 57 4.7 NNW 9 11 5 6 1019.9 1019.8 0.0
02/07:00pm 20.0 18.5 10.4 54 5.2 NW 9 9 5 5 1019.6 1019.5 0.0
02/06:30pm 20.2 18.0 9.5 50 5.7 NNW 11 13 6 7 1019.4 1019.3 0.0
02/06:00pm 22.4 19.8 7.8 39 7.6 N 11 13 6 7 1019.2 1019.1 0.0
02/05:30pm 24.8 21.9 8.3 35 8.8 N 13 15 7 8 1019.0 1018.9 0.0
02/05:00pm 26.6 23.3 8.1 31 9.9 NNE 15 17 8 9 1018.9 1018.8 0.0
02/04:30pm 28.0 24.9 7.3 27 11.1 NNE 13 17 7 9 1018.9 1018.8 0.0
02/04:00pm 29.4 26.0 4.1 20 12.9 N 11 20 6 11 1018.8 1018.7 0.0
02/03:30pm 29.3 26.6 2.5 18 13.3 ESE 6 13 3 7 1018.8 1018.7 0.0
02/03:00pm 29.6 25.6 2.8 18 13.4 ENE 13 26 7 14 1018.8 1018.7 0.0
02/02:30pm 30.0 25.9 2.3 17 13.8 NNE 13 20 7 11 1018.9 1018.8 0.0
02/02:00pm 29.9 25.9 3.0 18 13.5 E 13 30 7 16 1019.1 1019.0 0.0
02/01:30pm 30.3 25.5 2.5 17 13.9 E 17 28 9 15 1019.3 1019.2 0.0
02/01:00pm 29.7 24.6 2.9 18 13.4 E 19 26 10 14 1019.7 1019.6 0.0
02/12:30pm 29.9 24.6 3.0 18 13.5 E 20 28 11 15 1020.2 1020.1 0.0
02/12:00pm 29.3 24.1 5.4 22 12.4 ENE 22 32 12 17 1020.8 1020.7 0.0
02/11:30am 28.6 23.3 4.8 22 12.2 E 22 30 12 16 1021.3 1021.2 0.0
02/11:00am 27.5 22.1 4.5 23 11.6 E 22 32 12 17 1021.7 1021.6 0.0
02/10:30am 26.8 20.8 5.1 25 11.1 E 26 33 14 18 1022.0 1021.9 0.0
02/10:00am 25.8 20.1 4.9 26 10.5 ESE 24 32 13 17 1022.3 1022.2 0.0
02/09:30am 24.8 18.6 4.5 27 10.1 ESE 26 32 14 17 1022.3 1022.2 0.0
02/09:00am 23.9 18.2 4.8 29 9.5 ESE 24 30 13 16 1022.3 1022.2 0.0
02/08:30am 22.8 18.7 4.3 30 9.1 ESE 15 22 8 12 1022.0 1021.9 0.0

Other Formats:

Comma delimited format used in spreadsheet applications
http://www.bom.gov.au/fwo/IDW60801/IDW60801.94308.axf

JavaScript Object Notation format (JSON) in row-major order
http://www.bom.gov.au/fwo/IDW60801/IDW60801.94308.json